Time;durP1;ratioP1;P1;durP2;ratioP2;P2;SDS_P1;SDS_P2;PMS_P1;PMS_P2;Temp;Humidity;BMP_temperature;BMP_pressure;BME280_temperature;BME280_humidity;BME280_pressure;Samples;Min_cycle;Max_cycle;Signal;HPM_P1;HPM_P2
2023/06/12 00:00:53;;;;;;;4.55;2.75;;;;;;;23.38;nan;101913.25;5013378;28;22738;-42
2023/06/12 00:03:23;;;;;;;5.88;3.10;;;;;;;23.36;nan;101907.19;5001899;28;20026;-40
2023/06/12 00:05:59;;;;;;;6.30;3.08;;;;;;;23.33;nan;101912.84;5013660;28;20024;-42
2023/06/12 00:08:32;;;;;;;6.22;3.25;;;;;;;23.27;nan;101914.28;5023713;28;20034;-40
2023/06/12 00:11:09;;;;;;;7.10;2.95;;;;;;;23.19;nan;101916.78;5018994;28;20066;-40
2023/06/12 00:13:35;;;;;;;4.57;2.45;;;;;;;23.14;nan;101913.69;5007772;28;20853;-41
2023/06/12 00:16:02;;;;;;;7.85;3.15;;;;;;;23.11;nan;101922.03;5008427;28;20038;-38
2023/06/12 00:18:27;;;;;;;5.68;2.58;;;;;;;23.05;nan;101917.22;5022119;28;20075;-40
2023/06/12 00:20:54;;;;;;;6.00;3.25;;;;;;;23.02;nan;101921.06;5001445;28;20046;-42
2023/06/12 00:23:19;;;;;;;4.85;3.08;;;;;;;22.98;nan;101922.31;5029145;28;20403;-42
2023/06/12 00:25:45;;;;;;;6.18;2.92;;;;;;;22.94;nan;101912.84;5011277;28;20030;-40
2023/06/12 00:28:10;;;;;;;5.95;3.33;;;;;;;22.91;nan;101915.84;5022814;28;20041;-40
2023/06/12 00:30:38;;;;;;;3.03;1.88;;;;;;;22.88;nan;101916.94;5023070;28;20037;-38
2023/06/12 00:33:07;;;;;;;5.85;2.78;;;;;;;22.88;nan;101914.25;5026194;28;20116;-42
2023/06/12 00:35:37;;;;;;;6.93;3.85;;;;;;;22.86;nan;101912.72;5033033;28;20052;-37
2023/06/12 00:38:02;;;;;;;4.38;2.80;;;;;;;22.83;nan;101911.19;5015012;28;20120;-39
2023/06/12 00:40:28;;;;;;;6.05;3.30;;;;;;;22.81;nan;101908.63;5006889;28;20033;-39
2023/06/12 00:43:01;;;;;;;6.38;3.40;;;;;;;22.79;nan;101913.28;5004428;28;20049;-38
2023/06/12 00:45:30;;;;;;;4.82;2.72;;;;;;;22.75;nan;101905.66;5022960;28;20546;-41
2023/06/12 00:47:57;;;;;;;7.07;3.30;;;;;;;22.74;nan;101910.19;5027994;28;20169;-37
2023/06/12 00:50:27;;;;;;;5.68;3.47;;;;;;;22.73;nan;101905.81;5023529;28;20025;-40
2023/06/12 00:52:54;;;;;;;6.30;3.10;;;;;;;22.72;nan;101914.84;5008595;28;20030;-40
2023/06/12 00:55:20;;;;;;;6.40;2.90;;;;;;;22.63;nan;101911.16;5028877;28;20498;-40
2023/06/12 00:57:48;;;;;;;4.63;2.42;;;;;;;22.64;nan;101906.63;5024717;28;20450;-39
2023/06/12 01:00:17;;;;;;;8.57;2.83;;;;;;;22.64;nan;101912.84;5025635;28;20569;-41
2023/06/12 01:02:48;;;;;;;6.45;2.90;;;;;;;22.63;nan;101910.28;5016811;28;20045;-41
2023/06/12 01:05:19;;;;;;;5.07;2.65;;;;;;;22.63;nan;101913.84;5013786;28;20071;-40
2023/06/12 01:08:15;;;;;;;6.68;2.95;;;;;;;22.63;nan;101915.66;5018277;28;20036;-41
2023/06/12 01:11:05;;;;;;;4.55;2.75;;;;;;;22.60;nan;101913.28;5023034;28;20083;-40
2023/06/12 01:13:33;;;;;;;4.57;2.03;;;;;;;22.55;nan;101923.56;5019264;28;20034;-42
2023/06/12 01:16:01;;;;;;;6.72;3.33;;;;;;;22.53;nan;101918.34;5000445;28;20022;-41
2023/06/12 01:18:26;;;;;;;7.93;3.22;;;;;;;22.47;nan;101914.38;5026279;28;20538;-41
2023/06/12 01:20:55;;;;;;;5.47;3.08;;;;;;;22.47;nan;101908.16;5008900;28;20045;-39
2023/06/12 01:23:36;;;;;;;7.35;3.47;;;;;;;22.46;nan;101912.66;5026439;28;20618;-39
2023/06/12 01:26:25;;;;;;;9.60;2.90;;;;;;;22.42;nan;101908.59;5020026;28;20083;-39
2023/06/12 01:29:18;;;;;;;7.38;3.25;;;;;;;22.39;nan;101909.66;5028636;28;20053;-38
2023/06/12 01:32:05;;;;;;;7.75;2.60;;;;;;;22.38;nan;101908.00;5026079;28;20036;-41
2023/06/12 01:34:50;;;;;;;5.00;2.58;;;;;;;22.38;nan;101909.81;5034767;28;20491;-39
2023/06/12 01:37:20;;;;;;;4.75;2.80;;;;;;;22.37;nan;101911.66;5028135;28;20144;-42
2023/06/12 01:39:56;;;;;;;5.68;2.42;;;;;;;22.34;nan;101917.28;5028322;28;20071;-38
2023/06/12 01:42:24;;;;;;;5.97;2.88;;;;;;;22.31;nan;101911.38;5019783;28;20026;-40
2023/06/12 01:44:50;;;;;;;4.97;3.13;;;;;;;22.22;nan;101916.56;5021294;28;20984;-40
2023/06/12 01:47:16;;;;;;;6.20;2.65;;;;;;;;;;5027513;28;20096;-39
2023/06/12 01:49:41;;;;;;;4.20;2.47;;;;;;;22.12;nan;101910.31;5028758;28;20029;-40
2023/06/12 01:52:07;;;;;;;4.63;2.40;;;;;;;22.12;nan;101906.78;5020017;28;20287;-40
2023/06/12 01:54:33;;;;;;;5.22;2.70;;;;;;;22.08;nan;101908.88;5017781;28;20042;-39
2023/06/12 01:56:59;;;;;;;4.90;2.53;;;;;;;22.06;nan;101908.16;5026540;28;20052;-39
2023/06/12 01:59:24;;;;;;;7.95;3.35;;;;;;;21.99;nan;101910.56;5026284;28;20108;-39
2023/06/12 02:01:50;;;;;;;4.63;2.83;;;;;;;21.87;nan;101904.44;5023448;28;20560;-38
2023/06/12 02:04:17;;;;;;;9.55;3.03;;;;;;;21.88;nan;101907.97;5026898;28;20372;-37
2023/06/12 02:06:42;;;;;;;4.93;3.00;;;;;;;21.86;nan;101908.09;5003598;28;20040;-39
2023/06/12 02:09:08;;;;;;;4.75;2.78;;;;;;;21.83;nan;101905.72;5025802;28;20033;-39
2023/06/12 02:11:33;;;;;;;5.30;2.92;;;;;;;21.78;nan;101898.03;5025339;28;20033;-37
2023/06/12 02:13:59;;;;;;;7.07;3.53;;;;;;;21.71;nan;101901.41;5025194;28;20022;-38
2023/06/12 02:16:24;;;;;;;8.57;3.30;;;;;;;21.66;nan;101903.66;5029737;28;20030;-37
2023/06/12 02:18:50;;;;;;;4.85;2.65;;;;;;;21.62;nan;101906.59;5019611;28;20035;-39
2023/06/12 02:21:16;;;;;;;7.07;3.00;;;;;;;21.57;nan;101899.91;5020239;28;20037;-40
2023/06/12 02:23:41;;;;;;;7.05;3.00;;;;;;;21.55;nan;101900.03;5020026;28;20042;-41
2023/06/12 02:26:07;;;;;;;6.32;2.90;;;;;;;21.45;nan;101901.81;5025632;28;20087;-39
2023/06/12 02:28:32;;;;;;;5.60;3.10;;;;;;;21.45;nan;101899.13;5025746;28;20018;-39
2023/06/12 02:30:58;;;;;;;7.38;3.33;;;;;;;21.41;nan;101906.56;5024914;28;20057;-40
2023/06/12 02:33:25;;;;;;;5.57;3.38;;;;;;;21.40;nan;101898.69;5029144;28;20661;-40
2023/06/12 02:35:51;;;;;;;5.25;2.75;;;;;;;21.40;nan;101901.38;5004234;28;20083;-40
2023/06/12 02:38:17;;;;;;;5.70;2.90;;;;;;;21.35;nan;101900.91;5025890;28;20763;-41
2023/06/12 02:40:42;;;;;;;7.25;3.05;;;;;;;21.28;nan;101906.78;5025783;28;20026;-41
2023/06/12 02:43:08;;;;;;;6.40;3.30;;;;;;;21.28;nan;101901.41;5012356;28;20033;-39
2023/06/12 02:45:33;;;;;;;5.40;2.95;;;;;;;21.29;nan;101903.13;5023252;28;20850;-40
2023/06/12 02:47:58;;;;;;;5.10;2.70;;;;;;;21.29;nan;101911.16;5027589;28;20391;-35
2023/06/12 02:50:24;;;;;;;6.68;3.03;;;;;;;21.30;nan;101907.50;5028698;28;20383;-41
2023/06/12 02:52:50;;;;;;;5.38;2.28;;;;;;;21.32;nan;101908.22;5029232;28;20052;-37
2023/06/12 02:55:15;;;;;;;3.97;2.20;;;;;;;21.32;nan;101910.91;5007208;28;20583;-38
2023/06/12 02:57:41;;;;;;;4.75;2.25;;;;;;;21.34;nan;101917.94;5025956;28;20036;-39
2023/06/12 03:00:07;;;;;;;7.70;2.90;;;;;;;21.35;nan;101916.97;5027354;28;20483;-38
2023/06/12 03:02:32;;;;;;;11.13;2.78;;;;;;;21.37;nan;101912.34;5027505;28;20083;-40
2023/06/12 03:04:59;;;;;;;5.00;2.25;;;;;;;21.37;nan;101921.19;5028068;28;20033;-36
2023/06/12 03:07:27;;;;;;;6.53;2.60;;;;;;;21.37;nan;101913.16;5023861;28;20029;-38
2023/06/12 03:09:52;;;;;;;5.05;2.50;;;;;;;21.33;nan;101917.06;5024754;28;20033;-37
2023/06/12 03:12:18;;;;;;;6.30;2.53;;;;;;;21.29;nan;101918.34;5021748;28;20084;-40
2023/06/12 03:14:44;;;;;;;6.90;3.05;;;;;;;21.25;nan;101920.41;5023923;28;20515;-40
2023/06/12 03:17:10;;;;;;;6.00;2.60;;;;;;;21.22;nan;101920.69;5017939;28;20030;-39
2023/06/12 03:19:35;;;;;;;6.20;2.83;;;;;;;21.19;nan;101920.94;5021303;28;20040;-40
2023/06/12 03:22:01;;;;;;;8.77;3.27;;;;;;;21.14;nan;101913.31;5018678;28;20109;-40
2023/06/12 03:24:29;;;;;;;35.50;21.15;;;;;;;21.10;nan;101921.75;5019308;28;20038;-38
2023/06/12 03:26:55;;;;;;;10.00;5.85;;;;;;;21.05;nan;101929.28;5006306;28;20464;-41
2023/06/12 03:29:20;;;;;;;6.28;3.35;;;;;;;21.00;nan;101925.16;5022324;28;20061;-39
2023/06/12 03:31:46;;;;;;;5.97;2.45;;;;;;;20.99;nan;101914.59;5024141;28;20033;-38
2023/06/12 03:34:12;;;;;;;5.30;3.03;;;;;;;20.99;nan;101920.78;5026591;28;20088;-37
2023/06/12 03:36:38;;;;;;;5.03;3.30;;;;;;;20.94;nan;101931.03;5026181;28;20037;-39
2023/06/12 03:39:04;;;;;;;9.77;2.80;;;;;;;20.93;nan;101923.13;5029239;28;20029;-39
2023/06/12 03:41:32;;;;;;;7.45;2.85;;;;;;;20.91;nan;101928.63;5026010;28;20045;-40
2023/06/12 03:43:58;;;;;;;6.43;2.88;;;;;;;20.89;nan;101930.56;5023725;28;20026;-38
2023/06/12 03:46:24;;;;;;;6.15;2.92;;;;;;;20.90;nan;101921.56;5009258;28;20270;-37
2023/06/12 03:48:50;;;;;;;12.48;5.28;;;;;;;20.82;nan;101918.66;5026275;28;20029;-39
2023/06/12 03:51:15;;;;;;;13.38;4.22;;;;;;;20.79;nan;101929.66;5028468;28;20025;-38
2023/06/12 03:53:41;;;;;;;30.92;13.25;;;;;;;20.81;nan;101922.31;5032062;28;20033;-42
2023/06/12 03:56:07;;;;;;;22.77;11.98;;;;;;;20.81;nan;101923.19;5024681;28;20036;-38
2023/06/12 03:58:33;;;;;;;11.95;3.33;;;;;;;20.84;nan;101935.44;5027692;28;20037;-38
2023/06/12 04:00:59;;;;;;;10.07;3.28;;;;;;;20.81;nan;101939.22;5030440;28;20021;-36
2023/06/12 04:03:25;;;;;;;12.63;3.58;;;;;;;20.77;nan;101936.94;5030375;28;20075;-38
2023/06/12 04:05:51;;;;;;;8.05;3.17;;;;;;;20.75;nan;101929.03;5027837;28;20029;-38
2023/06/12 04:08:16;;;;;;;6.40;2.88;;;;;;;20.77;nan;101934.25;5034083;28;20037;-38
2023/06/12 04:10:43;;;;;;;12.00;3.58;;;;;;;20.80;nan;101932.19;5027660;28;20030;-39
2023/06/12 04:13:08;;;;;;;25.10;5.43;;;;;;;20.82;nan;101927.56;5026943;28;20047;-39
2023/06/12 04:15:34;;;;;;;14.77;3.90;;;;;;;20.86;nan;101933.50;5028942;28;20034;-39
2023/06/12 04:17:59;;;;;;;10.13;3.53;;;;;;;20.86;nan;101941.53;5031439;28;20116;-39
2023/06/12 04:20:29;;;;;;;8.85;3.08;;;;;;;20.86;nan;101949.53;5028206;28;20061;-38
2023/06/12 04:22:56;;;;;;;12.93;4.07;;;;;;;20.86;nan;101947.75;5023175;28;20046;-39
2023/06/12 04:25:23;;;;;;;20.17;7.85;;;;;;;20.87;nan;101948.56;5028354;28;20029;-37
2023/06/12 04:27:48;;;;;;;9.70;3.58;;;;;;;20.87;nan;101951.25;5027755;28;20029;-37
2023/06/12 04:30:15;;;;;;;4.97;3.28;;;;;;;20.86;nan;101941.53;5024751;28;20100;-40
2023/06/12 04:32:41;;;;;;;9.13;3.28;;;;;;;20.86;nan;101946.88;5022604;28;20049;-42
2023/06/12 04:35:07;;;;;;;9.02;3.70;;;;;;;20.90;nan;101947.47;5027618;28;20039;-41
2023/06/12 04:37:33;;;;;;;11.55;4.07;;;;;;;20.92;nan;101957.06;5030397;28;20542;-41
2023/06/12 04:39:58;;;;;;;11.88;3.55;;;;;;;20.93;nan;101953.44;5031642;28;20021;-39
2023/06/12 04:42:24;;;;;;;6.85;2.88;;;;;;;20.90;nan;101953.66;5022887;28;20045;-36
2023/06/12 04:44:50;;;;;;;10.80;3.05;;;;;;;20.92;nan;101951.72;5026591;28;20041;-40
2023/06/12 04:47:16;;;;;;;8.30;3.17;;;;;;;20.92;nan;101951.72;5031795;28;20037;-37
2023/06/12 04:49:45;;;;;;;4.53;2.47;;;;;;;20.97;nan;101952.16;5030480;28;20035;-39
2023/06/12 04:52:12;;;;;;;11.18;3.50;;;;;;;21.01;nan;101953.63;5031145;28;20478;-39
2023/06/12 04:54:41;;;;;;;5.47;2.85;;;;;;;21.04;nan;101951.66;5020041;28;20042;-39
2023/06/12 04:57:12;;;;;;;6.65;3.83;;;;;;;21.04;nan;101949.00;5024997;28;20017;-39
2023/06/12 04:59:38;;;;;;;3.65;2.05;;;;;;;21.05;nan;101956.06;5026201;28;20025;-41
2023/06/12 05:02:06;;;;;;;5.60;2.97;;;;;;;21.10;nan;101953.84;5015347;28;20054;-37
2023/06/12 05:04:32;;;;;;;5.68;2.63;;;;;;;21.10;nan;101953.84;5018898;28;20079;-40
2023/06/12 05:06:59;;;;;;;9.98;2.92;;;;;;;21.14;nan;101952.59;5003528;28;20036;-39
2023/06/12 05:09:25;;;;;;;5.57;2.70;;;;;;;21.18;nan;101959.38;5028999;28;20057;-37
2023/06/12 05:11:51;;;;;;;11.10;2.92;;;;;;;21.20;nan;101946.72;5027493;28;20012;-41
2023/06/12 05:14:19;;;;;;;12.20;2.83;;;;;;;21.21;nan;101940.41;5027148;28;20026;-39
2023/06/12 05:16:46;;;;;;;7.05;2.50;;;;;;;21.24;nan;101944.63;4996932;28;20060;-39
2023/06/12 05:19:15;;;;;;;10.45;3.58;;;;;;;21.29;nan;101940.59;5010289;28;20047;-37
2023/06/12 05:21:43;;;;;;;8.55;2.67;;;;;;;21.36;nan;101945.44;5012456;28;20034;-41
2023/06/12 05:24:08;;;;;;;6.00;3.00;;;;;;;21.42;nan;101942.22;5031066;28;20036;-38
2023/06/12 05:26:34;;;;;;;11.55;5.10;;;;;;;21.45;nan;101941.97;5009933;28;20036;-41
2023/06/12 05:29:01;;;;;;;15.57;8.05;;;;;;;21.51;nan;101952.16;5009182;28;20067;-41
2023/06/12 05:31:28;;;;;;;8.45;4.72;;;;;;;21.57;nan;101950.78;5026030;28;20026;-39
2023/06/12 05:33:54;;;;;;;7.28;3.47;;;;;;;21.62;nan;101954.78;5031491;28;20033;-41
2023/06/12 05:36:20;;;;;;;11.85;2.78;;;;;;;21.66;nan;101954.53;5011057;28;20055;-39
2023/06/12 05:38:46;;;;;;;8.45;3.42;;;;;;;21.70;nan;101950.63;5028287;28;20047;-40
2023/06/12 05:41:15;;;;;;;12.48;4.25;;;;;;;21.79;nan;101949.81;5028960;28;20033;-40
2023/06/12 05:43:44;;;;;;;5.68;3.50;;;;;;;21.81;nan;101952.34;5021606;28;20038;-40
2023/06/12 05:46:10;;;;;;;14.95;3.00;;;;;;;21.85;nan;101951.97;5008522;28;20017;-40
2023/06/12 05:48:36;;;;;;;6.55;2.30;;;;;;;21.88;nan;101951.69;5029315;28;20466;-42
2023/06/12 05:51:02;;;;;;;7.95;4.40;;;;;;;21.91;nan;101947.91;5023005;28;20455;-41
2023/06/12 05:53:28;;;;;;;7.10;3.40;;;;;;;21.96;nan;101947.50;5014162;28;20031;-40
2023/06/12 05:55:53;;;;;;;6.53;3.10;;;;;;;22.01;nan;101948.78;5027344;28;20026;-40
2023/06/12 05:58:20;;;;;;;6.18;2.88;;;;;;;22.07;nan;101948.25;5032355;28;20045;-41
2023/06/12 06:00:49;;;;;;;5.55;3.05;;;;;;;22.13;nan;101952.22;5010871;28;20045;-40
2023/06/12 06:03:15;;;;;;;6.22;2.92;;;;;;;22.21;nan;101955.06;5021079;28;20505;-42
2023/06/12 06:05:41;;;;;;;6.07;3.03;;;;;;;22.22;nan;101954.06;5020672;28;20069;-37
2023/06/12 06:08:06;;;;;;;5.35;3.20;;;;;;;22.27;nan;101952.81;5022957;28;20124;-40
2023/06/12 06:10:32;;;;;;;6.50;2.92;;;;;;;22.34;nan;101960.19;5020670;28;20028;-41
2023/06/12 06:12:57;;;;;;;6.88;3.75;;;;;;;22.35;nan;101961.03;5017054;28;20382;-39
2023/06/12 06:15:23;;;;;;;7.80;3.22;;;;;;;22.42;nan;101956.84;5013412;28;20037;-38
2023/06/12 06:17:48;;;;;;;8.23;3.45;;;;;;;22.46;nan;101958.25;5024587;28;20031;-41
2023/06/12 06:20:15;;;;;;;7.60;2.85;;;;;;;22.48;nan;101956.28;5021335;28;20036;-41
2023/06/12 06:22:41;;;;;;;5.88;3.13;;;;;;;22.47;nan;101959.13;5019856;28;20034;-39
2023/06/12 06:25:09;;;;;;;4.93;2.85;;;;;;;22.49;nan;101968.72;5027062;28;20033;-40
2023/06/12 06:27:35;;;;;;;5.68;3.28;;;;;;;22.52;nan;101964.94;4998259;28;20037;-42
2023/06/12 06:30:00;;;;;;;8.10;2.45;;;;;;;22.59;nan;101967.91;5016401;28;20017;-42
2023/06/12 06:32:26;;;;;;;6.15;2.65;;;;;;;22.67;nan;101965.38;5023543;28;20039;-40
2023/06/12 06:34:51;;;;;;;6.60;3.03;;;;;;;22.73;nan;101972.88;5011370;28;20392;-38
2023/06/12 06:37:17;;;;;;;11.95;3.53;;;;;;;22.77;nan;101974.28;5025169;28;20029;-39
2023/06/12 06:39:42;;;;;;;6.70;2.80;;;;;;;22.82;nan;101966.66;5024290;28;20087;-40
2023/06/12 06:42:08;;;;;;;10.45;3.30;;;;;;;22.87;nan;101971.59;5014733;28;20416;-39
2023/06/12 06:44:34;;;;;;;4.63;2.88;;;;;;;22.88;nan;101967.09;5024840;28;20033;-41
2023/06/12 06:46:59;;;;;;;6.25;3.08;;;;;;;22.89;nan;101976.84;5021516;28;20400;-42
2023/06/12 06:49:26;;;;;;;6.80;2.78;;;;;;;22.92;nan;101974.72;5035699;28;20029;-39
2023/06/12 06:51:51;;;;;;;10.07;5.00;;;;;;;23.00;nan;101976.69;5033962;28;20041;-40
2023/06/12 06:54:17;;;;;;;6.15;2.42;;;;;;;23.06;nan;101972.59;5032470;28;20025;-38
2023/06/12 06:56:42;;;;;;;4.65;2.95;;;;;;;23.10;nan;101977.53;5026175;28;20033;-40
2023/06/12 06:59:08;;;;;;;6.70;2.95;;;;;;;23.12;nan;101975.56;5031616;28;20065;-39
2023/06/12 07:01:34;;;;;;;6.72;3.13;;;;;;;23.18;nan;101978.69;5029687;28;20357;-38
2023/06/12 07:04:00;;;;;;;12.40;3.33;;;;;;;23.21;nan;101979.28;5030240;28;20032;-39
2023/06/12 07:06:26;;;;;;;5.53;2.92;;;;;;;23.24;nan;101984.38;5026826;28;20048;-40
2023/06/12 07:08:51;;;;;;;7.57;3.10;;;;;;;23.29;nan;101986.63;5027264;28;20040;-42
2023/06/12 07:11:17;;;;;;;6.57;3.50;;;;;;;23.32;nan;101980.97;5030245;28;20029;-40
2023/06/12 07:13:42;;;;;;;8.52;3.72;;;;;;;23.35;nan;101980.69;5035289;28;20031;-40
2023/06/12 07:16:08;;;;;;;8.52;3.63;;;;;;;23.37;nan;101989.44;5033256;28;20106;-40
2023/06/12 07:18:33;;;;;;;7.03;2.42;;;;;;;23.42;nan;101984.47;5026261;28;20472;-41
2023/06/12 07:21:03;;;;;;;8.40;2.72;;;;;;;23.47;nan;101989.41;5027450;28;20051;-42
2023/06/12 07:23:28;;;;;;;5.50;3.25;;;;;;;23.50;nan;101991.00;5024664;28;20125;-40
2023/06/12 07:25:54;;;;;;;8.77;4.57;;;;;;;23.54;nan;101984.31;5023609;28;20043;-40
2023/06/12 07:28:19;;;;;;;7.15;3.28;;;;;;;23.58;nan;101985.72;5030942;28;20476;-40
2023/06/12 07:30:45;;;;;;;5.82;3.58;;;;;;;23.63;nan;101982.59;5015890;28;20390;-39
2023/06/12 07:33:11;;;;;;;8.32;3.47;;;;;;;23.63;nan;101975.41;5022924;28;20026;-37
2023/06/12 07:35:36;;;;;;;5.22;3.05;;;;;;;23.68;nan;101980.34;5010707;28;20033;-40
2023/06/12 07:38:03;;;;;;;6.07;3.13;;;;;;;23.72;nan;101982.59;5024673;28;20112;-41
2023/06/12 07:40:29;;;;;;;5.97;3.28;;;;;;;23.77;nan;101973.25;5027635;28;20034;-37
2023/06/12 07:42:54;;;;;;;7.40;3.45;;;;;;;23.80;nan;101978.34;5023934;28;20034;-39
2023/06/12 07:45:20;;;;;;;6.78;3.00;;;;;;;23.84;nan;101982.41;5025996;28;20043;-40
2023/06/12 07:47:47;;;;;;;7.75;3.40;;;;;;;23.87;nan;101977.59;5031661;28;20031;-42
2023/06/12 07:50:12;;;;;;;6.40;3.15;;;;;;;23.93;nan;101980.69;5003995;28;20034;-41
2023/06/12 07:52:38;;;;;;;13.60;4.65;;;;;;;23.97;nan;101974.06;5030829;28;20040;-39
2023/06/12 07:55:05;;;;;;;6.68;3.00;;;;;;;24.00;nan;101979.97;5011448;28;20272;-41
2023/06/12 07:57:31;;;;;;;5.85;2.80;;;;;;;24.05;nan;101980.38;5032428;28;20025;-40
2023/06/12 07:59:56;;;;;;;5.68;3.42;;;;;;;24.09;nan;101982.78;5027252;28;20124;-41
2023/06/12 08:02:22;;;;;;;5.60;2.60;;;;;;;24.11;nan;101978.13;5010062;28;20029;-39
2023/06/12 08:04:47;;;;;;;6.22;3.22;;;;;;;24.13;nan;101968.91;5033665;28;20488;-40
2023/06/12 08:07:13;;;;;;;6.10;3.50;;;;;;;24.17;nan;101972.13;5028872;28;20048;-42
2023/06/12 08:09:42;;;;;;;6.90;2.65;;;;;;;24.20;nan;101979.91;5024682;28;20048;-41
2023/06/12 08:12:10;;;;;;;6.78;2.90;;;;;;;24.25;nan;101968.69;5030611;28;20033;-40
2023/06/12 08:14:36;;;;;;;5.47;2.70;;;;;;;24.28;nan;101966.53;5029840;28;20045;-40
2023/06/12 08:17:02;;;;;;;7.80;3.10;;;;;;;24.30;nan;101972.63;5027154;28;20033;-43
2023/06/12 08:19:28;;;;;;;5.43;2.50;;;;;;;24.32;nan;101969.81;5024464;28;20052;-41
2023/06/12 08:21:54;;;;;;;7.63;2.97;;;;;;;24.35;nan;101972.19;5022124;28;20041;-39
2023/06/12 08:24:19;;;;;;;6.78;2.78;;;;;;;24.35;nan;101969.50;5024950;28;20066;-41
2023/06/12 08:26:45;;;;;;;6.47;2.53;;;;;;;24.37;nan;101969.34;5026115;28;21164;-41
2023/06/12 08:29:12;;;;;;;6.03;3.20;;;;;;;24.37;nan;101969.34;5028671;28;20030;-42
2023/06/12 08:31:38;;;;;;;10.32;3.30;;;;;;;24.38;nan;101960.28;5028954;28;20087;-42
2023/06/12 08:34:03;;;;;;;8.10;3.38;;;;;;;24.42;nan;101959.00;5022958;28;20439;-42
2023/06/12 08:36:29;;;;;;;6.32;2.85;;;;;;;24.45;nan;101964.91;5030363;28;20045;-39
2023/06/12 08:38:54;;;;;;;8.35;3.10;;;;;;;24.49;nan;101954.69;5033370;28;20545;-39
2023/06/12 08:41:24;;;;;;;13.38;5.10;;;;;;;24.52;nan;101959.78;5019511;28;20029;-41
2023/06/12 08:43:51;;;;;;;8.05;4.70;;;;;;;24.56;nan;101957.63;5036046;28;20033;-42
2023/06/12 08:46:17;;;;;;;6.88;3.50;;;;;;;24.59;nan;101947.38;5037368;28;20379;-39
2023/06/12 08:48:44;;;;;;;6.68;3.35;;;;;;;24.59;nan;101950.06;5019156;28;20040;-42
2023/06/12 08:51:10;;;;;;;6.18;3.03;;;;;;;24.63;nan;101950.66;5034699;28;20632;-41
2023/06/12 08:53:36;;;;;;;5.38;3.15;;;;;;;24.65;nan;101962.94;5031864;28;20033;-42
2023/06/12 08:56:02;;;;;;;7.70;4.47;;;;;;;24.68;nan;101950.19;5013589;28;20029;-41
2023/06/12 08:58:28;;;;;;;7.05;2.92;;;;;;;24.69;nan;101958.09;5035107;28;20021;-41
2023/06/12 09:00:53;;;;;;;6.10;3.05;;;;;;;24.73;nan;101956.00;5014919;28;20384;-40
2023/06/12 09:03:20;;;;;;;5.57;2.90;;;;;;;24.74;nan;101952.28;5039482;28;20029;-40
2023/06/12 09:05:47;;;;;;;6.97;3.42;;;;;;;24.76;nan;101953.84;5040124;28;20029;-40
2023/06/12 09:08:13;;;;;;;5.22;2.80;;;;;;;24.78;nan;101959.06;5034574;28;20116;-40
2023/06/12 09:10:38;;;;;;;6.88;3.65;;;;;;;24.82;nan;101960.44;5018558;28;20043;-41
2023/06/12 09:13:11;;;;;;;7.68;4.00;;;;;;;24.86;nan;101959.16;5024938;28;20040;-39
2023/06/12 09:15:38;;;;;;;8.55;4.15;;;;;;;24.90;nan;101955.13;5035747;28;20029;-41
2023/06/12 09:18:09;;;;;;;6.15;3.50;;;;;;;24.96;nan;101946.44;5026878;28;20079;-41
2023/06/12 09:20:36;;;;;;;6.28;3.70;;;;;;;25.00;nan;101938.06;5029372;28;20489;-43
2023/06/12 09:23:03;;;;;;;7.10;4.25;;;;;;;25.04;nan;101939.41;5027880;28;20042;-38
2023/06/12 09:25:37;;;;;;;6.93;3.42;;;;;;;25.13;nan;101946.59;5012425;28;20028;-42
2023/06/12 09:28:04;;;;;;;6.25;3.80;;;;;;;25.19;nan;101945.13;5025042;28;20041;-42
2023/06/12 09:30:33;;;;;;;6.35;3.28;;;;;;;25.25;nan;101948.03;5029221;28;20043;-39
2023/06/12 09:33:00;;;;;;;6.95;3.90;;;;;;;25.28;nan;101952.25;5033217;28;20026;-42
2023/06/12 09:35:25;;;;;;;6.15;3.20;;;;;;;25.31;nan;101949.25;5037188;28;20519;-41
2023/06/12 09:37:51;;;;;;;11.65;4.40;;;;;;;25.34;nan;101951.63;5036869;28;20037;-40
2023/06/12 09:40:16;;;;;;;5.88;3.38;;;;;;;25.37;nan;101953.16;5033227;28;20025;-40
2023/06/12 09:42:42;;;;;;;12.25;3.28;;;;;;;25.41;nan;101951.84;5028208;28;20456;-42
2023/06/12 09:45:13;;;;;;;5.10;3.03;;;;;;;25.45;nan;101952.41;5013594;28;20041;-43
2023/06/12 09:47:44;;;;;;;7.38;3.17;;;;;;;25.47;nan;101945.00;5033025;28;20103;-40
2023/06/12 09:50:11;;;;;;;8.60;3.70;;;;;;;25.47;nan;101945.00;5028521;28;20116;-43
2023/06/12 09:52:40;;;;;;;9.23;4.63;;;;;;;25.45;nan;101942.47;5027031;28;20033;-43
2023/06/12 09:55:06;;;;;;;8.00;3.55;;;;;;;25.47;nan;101945.88;5023025;28;20096;-42
2023/06/12 09:57:35;;;;;;;6.15;3.67;;;;;;;25.51;nan;101941.81;5030249;28;20147;-40
2023/06/12 10:00:05;;;;;;;7.05;3.78;;;;;;;25.55;nan;101934.28;5017788;28;20033;-42
2023/06/12 10:02:31;;;;;;;5.38;3.20;;;;;;;25.60;nan;101931.94;5023916;28;20025;-42
2023/06/12 10:05:03;;;;;;;6.55;3.38;;;;;;;25.70;nan;101931.84;5021461;28;20022;-42
2023/06/12 10:07:32;;;;;;;;;;;;;;;25.77;nan;101943.69;5025011;28;20631;-41
2023/06/12 10:09:59;;;;;;;6.18;3.47;;;;;;;25.79;nan;101928.16;5009756;28;19913;-41
2023/06/12 10:12:25;;;;;;;8.52;3.60;;;;;;;25.85;nan;101929.41;5023017;28;20042;-42
2023/06/12 10:14:52;;;;;;;6.72;3.90;;;;;;;25.89;nan;101927.22;5023549;28;20041;-42
2023/06/12 10:17:22;;;;;;;8.68;3.70;;;;;;;25.92;nan;101924.22;5002337;28;20077;-41
2023/06/12 10:19:49;;;;;;;6.20;3.85;;;;;;;25.95;nan;101915.78;5019734;28;20048;-40
2023/06/12 10:22:15;;;;;;;7.45;3.20;;;;;;;26.00;nan;101908.06;5016976;28;20036;-38
2023/06/12 10:24:41;;;;;;;5.32;2.78;;;;;;;26.06;nan;101910.09;5019541;28;20033;-41
2023/06/12 10:27:08;;;;;;;13.32;5.72;;;;;;;26.12;nan;101912.16;5019618;28;20503;-40
2023/06/12 10:29:36;;;;;;;6.90;4.00;;;;;;;26.17;nan;101904.44;5020983;28;20079;-40
2023/06/12 10:32:14;;;;;;;10.32;3.33;;;;;;;26.23;nan;101912.91;5022314;28;20041;-42
2023/06/12 10:34:42;;;;;;;5.28;3.13;;;;;;;26.31;nan;101913.75;5023299;28;20033;-41
2023/06/12 10:37:27;;;;;;;6.00;3.42;;;;;;;26.31;nan;101905.66;5021650;28;20401;-41
2023/06/12 10:40:05;;;;;;;6.70;4.47;;;;;;;26.39;nan;101909.38;5024745;28;20061;-39
2023/06/12 10:43:01;;;;;;;4.90;3.22;;;;;;;26.39;nan;101907.53;5027314;28;20133;-42
2023/06/12 10:45:32;;;;;;;5.03;3.25;;;;;;;26.41;nan;101904.66;5022969;28;20025;-40
2023/06/12 10:48:03;;;;;;;7.47;3.40;;;;;;;26.42;nan;101895.56;5028204;28;20044;-42
2023/06/12 10:50:30;;;;;;;8.82;3.60;;;;;;;26.42;nan;101895.56;5031551;28;20037;-40
2023/06/12 10:52:56;;;;;;;10.85;3.58;;;;;;;26.42;nan;101899.09;5033643;28;20056;-42
2023/06/12 10:55:23;;;;;;;7.10;3.10;;;;;;;26.40;nan;101898.41;5034078;28;20029;-41
2023/06/12 10:57:53;;;;;;;5.63;3.28;;;;;;;26.40;nan;101887.63;5029237;28;20512;-42
2023/06/12 11:00:22;;;;;;;4.10;2.47;;;;;;;26.40;nan;101900.28;5030571;28;20041;-42
2023/06/12 11:02:57;;;;;;;5.50;3.53;;;;;;;26.40;nan;101893.00;5028369;28;20026;-42
2023/06/12 11:05:24;;;;;;;14.10;6.53;;;;;;;26.42;nan;101890.16;5026885;28;20578;-42
2023/06/12 11:07:50;;;;;;;12.43;4.93;;;;;;;26.40;nan;101887.63;5025894;28;20050;-41
2023/06/12 11:10:16;;;;;;;4.85;3.25;;;;;;;26.42;nan;101884.78;5030650;28;20044;-43
2023/06/12 11:12:48;;;;;;;6.72;3.67;;;;;;;26.43;nan;101876.50;5023516;28;20033;-42
2023/06/12 11:15:15;;;;;;;11.95;4.65;;;;;;;26.42;nan;101877.50;5028502;28;20173;-40
2023/06/12 11:17:42;;;;;;;13.07;5.75;;;;;;;26.44;nan;101872.78;5022725;28;20040;-41
2023/06/12 11:20:08;;;;;;;9.95;7.32;;;;;;;26.40;nan;101876.81;5026324;28;20420;-39
2023/06/12 11:22:34;;;;;;;10.05;4.90;;;;;;;26.38;nan;101868.06;5026733;28;20128;-42
2023/06/12 11:25:01;;;;;;;6.95;3.25;;;;;;;26.38;nan;101870.78;5016781;28;20056;-43
2023/06/12 11:27:30;;;;;;;16.15;7.18;;;;;;;26.44;nan;101859.31;5007774;28;20059;-42
2023/06/12 11:30:16;;;;;;;10.88;5.95;;;;;;;26.50;nan;101854.25;5022666;28;20037;-43
2023/06/12 11:32:45;;;;;;;12.63;4.78;;;;;;;26.65;nan;101857.97;5024285;28;20547;-43
2023/06/12 11:35:11;;;;;;;8.60;4.25;;;;;;;26.78;nan;101858.31;5026687;28;20075;-40
2023/06/12 11:37:38;;;;;;;6.22;3.90;;;;;;;26.86;nan;101865.59;5022937;28;20044;-41
2023/06/12 11:40:08;;;;;;;8.27;3.40;;;;;;;26.91;nan;101865.94;5021945;28;20163;-42
2023/06/12 11:42:42;;;;;;;7.60;3.38;;;;;;;26.97;nan;101861.72;5026154;28;20041;-42